Time;durP1;ratioP1;P1;durP2;ratioP2;P2;SDS_P1;SDS_P2;PMS_P1;PMS_P2;Temp;Humidity;BMP_temperature;BMP_pressure;BME280_temperature;BME280_humidity;BME280_pressure;Samples;Min_cycle;Max_cycle;Signal;HPM_P1;HPM_P2
2022/04/28 00:01:28;;;;;;;4.03;3.63;;;7.10;99.90;;;;;;4994817;28;20190;-74
2022/04/28 00:03:54;;;;;;;4.70;3.70;;;7.10;99.90;;;;;;5009597;28;20283;-74
2022/04/28 00:06:19;;;;;;;3.87;3.43;;;7.10;99.90;;;;;;5010021;28;20210;-74
2022/04/28 00:08:45;;;;;;;4.60;3.97;;;7.00;99.90;;;;;;4993580;28;20183;-74
2022/04/28 00:11:11;;;;;;;4.43;3.60;;;7.10;99.90;;;;;;4993495;28;20619;-74
2022/04/28 00:13:37;;;;;;;4.33;3.53;;;7.00;99.90;;;;;;4993028;28;20293;-74
2022/04/28 00:16:04;;;;;;;4.43;4.00;;;7.00;99.90;;;;;;4993358;28;20319;-74
2022/04/28 00:18:29;;;;;;;5.13;3.80;;;7.00;99.90;;;;;;4993435;28;20180;-74
2022/04/28 00:20:55;;;;;;;4.87;3.60;;;7.00;99.90;;;;;;5009513;28;20187;-74
2022/04/28 00:23:21;;;;;;;5.70;4.20;;;7.00;99.90;;;;;;4993045;28;20271;-74
2022/04/28 00:25:46;;;;;;;4.57;4.07;;;6.90;99.90;;;;;;5009438;28;20207;-74
2022/04/28 00:28:12;;;;;;;5.13;4.10;;;6.80;99.90;;;;;;4993206;28;20266;-74
2022/04/28 00:30:37;;;;;;;4.17;3.77;;;6.80;99.90;;;;;;4993422;28;20176;-74
2022/04/28 00:33:03;;;;;;;4.10;3.47;;;6.80;99.90;;;;;;4992785;28;20191;-74
2022/04/28 00:35:29;;;;;;;4.30;3.90;;;6.80;99.90;;;;;;4992790;28;20186;-74
2022/04/28 00:37:54;;;;;;;4.20;3.40;;;6.80;99.90;;;;;;4993083;28;20643;-74
2022/04/28 00:40:20;;;;;;;4.30;3.27;;;6.80;99.90;;;;;;4992978;28;20180;-74
2022/04/28 00:42:45;;;;;;;3.80;3.50;;;6.80;99.90;;;;;;5008946;28;20185;-74
2022/04/28 00:45:11;;;;;;;5.23;3.70;;;6.90;99.90;;;;;;4992847;28;20883;-74
2022/04/28 00:50:39;;;;;;;4.63;3.83;;;7.00;99.90;;;;;;5006347;28;20188;-74
2022/04/28 00:53:09;;;;;;;4.13;3.67;;;6.90;99.90;;;;;;4992434;28;20196;-74
2022/04/28 00:55:35;;;;;;;3.97;3.67;;;6.80;99.90;;;;;;4992635;28;20183;-74
2022/04/28 00:58:01;;;;;;;4.10;3.70;;;6.70;99.90;;;;;;4993778;28;20229;-74
2022/04/28 01:00:27;;;;;;;4.10;3.80;;;6.70;99.90;;;;;;4992580;28;20176;-74
2022/04/28 01:02:53;;;;;;;4.60;3.63;;;6.70;99.90;;;;;;4992178;28;20299;-74
2022/04/28 01:05:19;;;;;;;5.20;3.70;;;6.60;99.90;;;;;;4992366;28;20302;-74
2022/04/28 01:07:45;;;;;;;6.13;4.10;;;6.70;99.90;;;;;;4993547;28;20259;-74
2022/04/28 01:10:10;;;;;;;4.10;3.70;;;6.90;99.90;;;;;;4992347;28;20642;-74
2022/04/28 01:12:36;;;;;;;5.10;3.70;;;6.90;99.90;;;;;;5008454;28;20586;-74
2022/04/28 01:15:02;;;;;;;4.30;3.90;;;6.80;99.90;;;;;;4992068;28;20195;-74
2022/04/28 01:17:28;;;;;;;4.07;3.67;;;6.80;99.90;;;;;;4992179;28;20267;-74
2022/04/28 01:19:53;;;;;;;4.57;3.83;;;6.50;99.90;;;;;;5008243;28;20271;-74
2022/04/28 01:22:19;;;;;;;4.30;3.90;;;6.30;99.90;;;;;;4991944;28;20195;-74
2022/04/28 01:24:44;;;;;;;5.37;3.90;;;6.20;99.90;;;;;;4992128;28;20306;-74
2022/04/28 01:27:12;;;;;;;4.30;3.90;;;6.20;99.90;;;;;;4992356;28;20604;-74
2022/04/28 01:29:38;;;;;;;5.17;4.30;;;6.10;99.90;;;;;;4992048;28;20664;-74
2022/04/28 01:32:04;;;;;;;4.43;4.03;;;6.00;99.90;;;;;;4991732;28;20175;-74
2022/04/28 01:34:29;;;;;;;4.60;4.20;;;6.00;99.90;;;;;;4991818;28;20337;-74
2022/04/28 01:36:55;;;;;;;4.30;3.90;;;6.10;99.90;;;;;;4991827;28;20232;-74
2022/04/28 01:39:21;;;;;;;5.10;4.10;;;6.20;99.90;;;;;;5008206;28;20172;-74
2022/04/28 01:41:50;;;;;;;4.50;4.03;;;6.20;99.90;;;;;;4991956;28;20183;-74
2022/04/28 01:44:15;;;;;;;4.73;4.23;;;6.10;99.90;;;;;;4991720;28;20222;-74
2022/04/28 01:46:41;;;;;;;4.53;4.10;;;5.90;99.90;;;;;;4991870;28;20701;-74
2022/04/28 01:49:07;;;;;;;4.67;4.03;;;5.90;99.90;;;;;;4991942;28;20554;-74
2022/04/28 01:57:02;;;;;;;6.50;3.97;;;6.10;99.90;;;;;;5006020;28;20198;-74
2022/04/28 01:59:28;;;;;;;4.70;4.30;;;6.10;99.90;;;;;;4991625;28;20182;-74
2022/04/28 02:01:53;;;;;;;5.20;4.70;;;6.00;99.90;;;;;;4991256;28;20672;-74
2022/04/28 02:04:19;;;;;;;6.80;4.77;;;6.00;99.90;;;;;;4991444;28;20199;-74
2022/04/28 02:06:45;;;;;;;5.50;4.10;;;6.00;99.90;;;;;;4991448;28;20186;-73
2022/04/28 02:09:11;;;;;;;4.57;4.07;;;6.00;99.90;;;;;;4991498;28;20182;-73
2022/04/28 02:11:36;;;;;;;5.37;4.00;;;6.00;99.90;;;;;;4991607;28;20193;-74
2022/04/28 02:14:02;;;;;;;4.83;4.13;;;5.90;99.90;;;;;;4991192;28;20250;-73
2022/04/28 02:16:28;;;;;;;5.83;4.50;;;5.90;99.90;;;;;;5007974;28;20259;-74
2022/04/28 02:18:53;;;;;;;6.50;4.40;;;6.00;99.90;;;;;;4991268;28;20201;-73
2022/04/28 02:21:19;;;;;;;5.50;4.67;;;6.00;99.90;;;;;;4991442;28;20174;-73
2022/04/28 02:23:45;;;;;;;5.60;4.43;;;6.10;99.90;;;;;;4991215;28;20252;-73
2022/04/28 02:26:10;;;;;;;5.23;4.73;;;6.20;99.90;;;;;;5007923;28;20241;-73
2022/04/28 02:28:36;;;;;;;4.70;4.20;;;6.10;99.90;;;;;;4991380;28;20210;-73
2022/04/28 02:31:01;;;;;;;4.80;4.20;;;6.10;99.90;;;;;;5007643;28;20195;-74
2022/04/28 02:33:27;;;;;;;5.37;4.40;;;6.00;99.90;;;;;;4991048;28;20286;-73
2022/04/28 02:35:52;;;;;;;5.40;4.50;;;5.90;99.90;;;;;;4991298;28;20665;-73
2022/04/28 02:38:18;;;;;;;6.33;4.30;;;5.80;99.90;;;;;;4991443;28;20296;-73
2022/04/28 02:40:44;;;;;;;5.27;4.30;;;5.80;99.90;;;;;;4992522;28;20187;-73
2022/04/28 02:43:09;;;;;;;5.97;4.70;;;5.90;99.90;;;;;;4991093;28;20208;-73
2022/04/28 02:45:35;;;;;;;6.03;4.33;;;5.60;99.90;;;;;;4991172;28;20712;-73
2022/04/28 02:48:00;;;;;;;8.07;4.63;;;5.60;99.90;;;;;;4990968;28;20185;-73
2022/04/28 02:50:26;;;;;;;5.90;4.77;;;5.50;99.90;;;;;;4991195;28;20183;-73
2022/04/28 02:52:52;;;;;;;4.60;4.20;;;5.30;99.90;;;;;;4991099;28;20181;-73
2022/04/28 02:55:17;;;;;;;4.77;4.37;;;5.30;99.90;;;;;;4991288;28;20187;-73
2022/04/28 02:57:43;;;;;;;5.00;4.50;;;5.20;99.90;;;;;;4991187;28;20237;-73
2022/04/28 03:00:09;;;;;;;5.33;4.30;;;5.00;99.90;;;;;;4991109;28;20196;-73
2022/04/28 03:02:35;;;;;;;4.87;4.30;;;5.10;99.90;;;;;;4991038;28;20240;-73
2022/04/28 03:05:04;;;;;;;5.07;4.57;;;5.20;99.90;;;;;;4991196;28;20221;-73
2022/04/28 03:12:59;;;;;;;6.03;4.47;;;5.50;99.90;;;;;;4993744;28;20227;-73
2022/04/28 03:15:25;;;;;;;5.43;4.53;;;5.50;99.90;;;;;;4994641;28;20180;-73
2022/04/28 03:17:51;;;;;;;5.00;4.50;;;5.50;99.90;;;;;;4994579;28;20178;-73
2022/04/28 03:20:16;;;;;;;5.30;4.43;;;5.50;99.90;;;;;;4994571;28;20593;-73
2022/04/28 03:22:43;;;;;;;4.90;4.40;;;5.40;99.90;;;;;;5010534;28;20218;-73
2022/04/28 03:25:09;;;;;;;4.63;3.87;;;5.20;99.90;;;;;;4994290;28;20210;-73
2022/04/28 03:27:35;;;;;;;4.43;4.00;;;5.20;99.90;;;;;;4994264;28;20228;-73
2022/04/28 03:30:02;;;;;;;5.37;4.60;;;5.30;99.90;;;;;;4994236;28;20172;-73
2022/04/28 03:32:28;;;;;;;5.73;4.73;;;5.30;99.90;;;;;;4993907;28;20185;-73
2022/04/28 03:34:53;;;;;;;4.63;4.13;;;5.30;99.90;;;;;;4994098;28;20207;-73
2022/04/28 03:37:19;;;;;;;5.87;5.27;;;5.30;99.90;;;;;;4994246;28;20190;-73
2022/04/28 03:39:44;;;;;;;4.97;4.37;;;5.20;99.90;;;;;;4993948;28;20190;-73
2022/04/28 03:42:10;;;;;;;5.27;4.20;;;5.10;99.90;;;;;;4993796;28;20300;-73
2022/04/28 03:44:36;;;;;;;5.37;4.80;;;5.10;99.90;;;;;;4994023;28;20201;-73
2022/04/28 03:47:03;;;;;;;5.67;4.60;;;5.00;99.90;;;;;;4995220;28;20256;-72
2022/04/28 03:49:28;;;;;;;5.40;4.50;;;4.90;99.90;;;;;;4993864;28;20173;-73
2022/04/28 03:51:54;;;;;;;6.83;4.80;;;4.90;99.90;;;;;;5010087;28;20181;-73
2022/04/28 03:54:21;;;;;;;5.30;4.50;;;4.90;99.90;;;;;;4993700;28;20199;-73
2022/04/28 03:56:47;;;;;;;7.03;4.73;;;5.00;99.90;;;;;;4993695;28;20190;-73
2022/04/28 03:59:12;;;;;;;5.33;4.60;;;4.90;99.90;;;;;;4993932;28;20181;-73
2022/04/28 04:01:38;;;;;;;4.77;4.27;;;5.00;99.90;;;;;;5009998;28;20254;-72
2022/04/28 04:04:04;;;;;;;5.47;4.67;;;5.10;99.90;;;;;;4993341;28;20195;-73
2022/04/28 04:06:31;;;;;;;5.43;4.90;;;5.00;99.90;;;;;;4993573;28;20295;-72
2022/04/28 04:08:56;;;;;;;5.63;5.03;;;4.90;99.90;;;;;;5009814;28;20203;-73
2022/04/28 04:11:22;;;;;;;6.63;4.93;;;4.90;99.90;;;;;;4993446;28;20207;-72
2022/04/28 04:13:48;;;;;;;5.13;4.60;;;4.90;99.90;;;;;;4993811;28;20240;-73
2022/04/28 04:16:13;;;;;;;5.53;4.60;;;5.00;99.90;;;;;;5009918;28;20188;-73
2022/04/28 04:18:39;;;;;;;5.33;4.43;;;5.00;99.90;;;;;;5009977;28;20180;-73
2022/04/28 04:21:05;;;;;;;6.53;5.07;;;5.00;99.90;;;;;;4993306;28;20527;-73
2022/04/28 05:35:03;;;;;;;6.53;5.90;;;5.30;99.90;;;;;;5107259;23;20229;-75
2022/04/28 05:37:29;;;;;;;6.87;5.23;;;5.50;99.90;;;;;;5034763;28;20515;-75
2022/04/28 05:39:55;;;;;;;6.27;5.63;;;5.50;99.90;;;;;;5018131;28;20205;-75
2022/04/28 05:42:21;;;;;;;7.90;6.07;;;5.50;99.90;;;;;;5001576;28;20200;-75
2022/04/28 05:47:30;;;;;;;6.57;5.90;;;5.50;99.90;;;;;;5024024;28;20251;-76
2022/04/28 05:49:56;;;;;;;7.27;5.40;;;5.70;99.90;;;;;;5034589;28;20176;-76
2022/04/28 05:52:22;;;;;;;6.17;5.30;;;5.90;99.90;;;;;;5017876;28;20181;-75
2022/04/28 05:54:47;;;;;;;6.30;4.97;;;5.90;99.90;;;;;;5001645;28;20205;-75
2022/04/28 05:57:13;;;;;;;5.77;5.17;;;5.70;99.90;;;;;;5034454;28;20686;-75
2022/04/28 05:59:39;;;;;;;6.27;4.77;;;5.70;99.90;;;;;;5001980;28;20174;-74
2022/04/28 06:02:06;;;;;;;5.83;5.23;;;6.00;99.90;;;;;;5034464;28;20234;-74
2022/04/28 06:04:32;;;;;;;6.00;5.40;;;6.60;99.90;;;;;;5034114;28;20246;-74
2022/04/28 06:06:58;;;;;;;7.50;5.47;;;7.10;99.90;;;;;;5001662;28;20178;-75
2022/04/28 06:09:23;;;;;;;7.23;5.90;;;7.50;99.90;;;;;;5001456;28;20314;-75
2022/04/28 06:11:49;;;;;;;6.47;5.87;;;7.40;99.90;;;;;;5001407;28;20181;-77
2022/04/28 06:14:15;;;;;;;5.97;5.37;;;7.30;99.90;;;;;;5033994;28;20196;-75
2022/04/28 06:16:41;;;;;;;7.77;5.87;;;7.20;99.90;;;;;;5017517;28;20180;-76
2022/04/28 06:19:07;;;;;;;9.30;5.70;;;7.20;99.90;;;;;;5034210;28;20272;-76
2022/04/28 06:21:32;;;;;;;6.73;5.90;;;7.20;99.90;;;;;;5001423;28;20271;-76
2022/04/28 06:23:58;;;;;;;6.93;5.60;;;7.20;99.90;;;;;;5017607;28;20198;-76
2022/04/28 06:26:24;;;;;;;6.80;5.70;;;7.20;99.90;;;;;;5017616;28;20327;-77
2022/04/28 06:28:49;;;;;;;6.30;5.70;;;7.20;99.90;;;;;;5033933;28;20189;-76
2022/04/28 06:31:15;;;;;;;6.60;5.63;;;7.20;99.90;;;;;;5017691;28;20220;-76
2022/04/28 06:33:41;;;;;;;6.83;6.13;;;7.30;99.90;;;;;;5001121;28;20209;-76
2022/04/28 06:36:07;;;;;;;6.90;6.10;;;7.40;99.90;;;;;;5017671;28;20754;-76
2022/04/28 06:38:33;;;;;;;7.97;6.87;;;7.50;99.90;;;;;;5017592;28;20258;-76
2022/04/28 06:40:58;;;;;;;7.57;6.60;;;7.50;99.90;;;;;;5017501;28;20615;-76
2022/04/28 06:43:24;;;;;;;7.73;6.77;;;7.70;99.90;;;;;;5000596;28;20204;-75
2022/04/28 06:48:33;;;;;;;9.60;7.70;;;7.90;99.90;;;;;;5054718;28;20181;-76
2022/04/28 06:50:59;;;;;;;7.67;6.70;;;7.90;99.90;;;;;;5021208;28;20177;-76
2022/04/28 06:53:25;;;;;;;8.27;7.00;;;7.90;99.90;;;;;;5037545;28;20676;-76
2022/04/28 06:55:50;;;;;;;7.70;6.87;;;8.00;99.90;;;;;;5037508;28;20174;-76
2022/04/28 06:58:16;;;;;;;8.03;6.70;;;8.00;99.90;;;;;;5020831;28;20180;-76
2022/04/28 07:00:43;;;;;;;10.07;7.17;;;7.90;99.90;;;;;;5021178;28;20182;-76
2022/04/28 07:03:09;;;;;;;8.77;6.70;;;8.00;99.90;;;;;;5021146;28;20233;-76
2022/04/28 07:05:35;;;;;;;7.90;6.50;;;8.10;99.90;;;;;;5004586;28;20201;-76
2022/04/28 07:08:00;;;;;;;8.60;6.83;;;8.10;99.90;;;;;;5004659;28;20177;-76
2022/04/28 07:10:26;;;;;;;7.87;7.07;;;8.20;99.90;;;;;;5004423;28;20652;-76
2022/04/28 07:12:51;;;;;;;10.43;7.10;;;8.30;99.90;;;;;;5020530;28;20196;-76
2022/04/28 07:15:17;;;;;;;9.23;7.10;;;8.40;99.90;;;;;;5004781;28;20644;-76
2022/04/28 07:17:43;;;;;;;8.33;7.07;;;8.50;99.90;;;;;;5020827;28;20227;-76
2022/04/28 07:20:09;;;;;;;7.97;7.17;;;8.50;99.90;;;;;;5003994;28;20245;-76
2022/04/28 07:22:34;;;;;;;9.63;7.43;;;8.60;99.90;;;;;;5020598;28;20182;-76
2022/04/28 07:25:00;;;;;;;8.07;7.27;;;8.70;99.90;;;;;;5036883;28;20277;-76
2022/04/28 07:27:25;;;;;;;9.87;6.97;;;8.80;99.90;;;;;;5020473;28;20170;-76
2022/04/28 07:29:51;;;;;;;7.63;6.83;;;8.90;99.90;;;;;;5004164;28;20549;-76
2022/04/28 07:32:17;;;;;;;7.67;6.93;;;9.10;99.90;;;;;;5004050;28;20174;-76
2022/04/28 07:34:42;;;;;;;8.63;7.33;;;9.30;99.90;;;;;;5004018;28;20577;-76
2022/04/28 07:37:08;;;;;;;8.23;7.27;;;9.40;99.90;;;;;;5020248;28;20211;-76
2022/04/28 07:39:33;;;;;;;12.17;7.30;;;9.50;99.90;;;;;;5020460;28;20183;-76
2022/04/28 07:41:59;;;;;;;8.73;7.83;;;9.50;99.90;;;;;;5003723;28;20203;-76
2022/04/28 07:44:25;;;;;;;8.87;7.63;;;9.40;99.90;;;;;;5020295;28;20205;-76
2022/04/28 07:46:50;;;;;;;9.03;8.10;;;9.30;99.90;;;;;;5020111;28;20202;-76
2022/04/28 07:49:16;;;;;;;9.60;7.70;;;9.30;99.90;;;;;;5020230;28;20175;-76
2022/04/28 07:51:41;;;;;;;8.57;7.67;;;9.40;99.90;;;;;;5019995;28;20175;-76
2022/04/28 07:54:07;;;;;;;9.07;7.67;;;9.30;99.90;;;;;;5019768;28;20195;-76
2022/04/28 07:56:33;;;;;;;8.80;7.73;;;9.20;99.90;;;;;;5020054;28;20178;-76
2022/04/28 07:58:59;;;;;;;9.30;8.03;;;9.00;99.90;;;;;;5003448;28;20216;-77
2022/04/28 08:01:24;;;;;;;11.00;8.33;;;9.00;99.90;;;;;;5003816;28;20230;-76
2022/04/28 08:03:50;;;;;;;9.70;8.50;;;9.30;99.90;;;;;;5003290;28;20202;-76
2022/04/28 08:06:16;;;;;;;11.73;8.53;;;9.50;99.90;;;;;;5036257;28;20210;-76
2022/04/28 08:08:42;;;;;;;10.23;8.77;;;9.70;99.90;;;;;;5036235;28;20171;-76
2022/04/28 08:11:08;;;;;;;9.63;8.03;;;9.80;99.90;;;;;;5019538;28;20175;-76
2022/04/28 08:13:34;;;;;;;9.83;8.83;;;10.00;99.90;;;;;;5003230;28;20197;-76
2022/04/28 08:16:01;;;;;;;9.47;8.30;;;10.20;99.90;;;;;;5019674;28;20183;-76
2022/04/28 08:18:29;;;;;;;10.07;7.97;;;10.50;99.90;;;;;;5003478;28;20229;-76
2022/04/28 08:20:55;;;;;;;9.27;8.27;;;10.60;99.90;;;;;;5035651;28;20184;-76
2022/04/28 08:23:20;;;;;;;10.00;8.00;;;10.80;99.90;;;;;;5019186;28;20200;-76
2022/04/28 08:25:46;;;;;;;11.33;8.40;;;11.00;99.90;;;;;;5053635;28;20212;-76
2022/04/28 08:28:12;;;;;;;8.93;7.30;;;11.30;99.90;;;;;;5019384;28;20188;-76
2022/04/28 08:30:37;;;;;;;8.70;7.80;;;11.50;99.90;;;;;;5035809;28;20184;-76
2022/04/28 08:33:04;;;;;;;9.17;6.80;;;11.70;99.90;;;;;;5018991;28;20339;-76
2022/04/28 08:35:30;;;;;;;7.57;6.80;;;11.70;99.90;;;;;;5019553;28;20670;-76
2022/04/28 08:37:56;;;;;;;7.37;6.60;;;11.80;99.90;;;;;;5019137;28;20266;-76
2022/04/28 08:40:21;;;;;;;6.93;6.20;;;11.90;99.90;;;;;;5019155;28;20188;-76
2022/04/28 08:42:48;;;;;;;6.70;5.97;;;12.10;99.90;;;;;;5018930;28;20181;-76
2022/04/28 08:45:18;;;;;;;6.73;5.83;;;12.20;99.90;;;;;;5035414;28;20190;-76
2022/04/28 08:47:47;;;;;;;7.20;6.50;;;12.50;99.90;;;;;;5019131;28;20647;-76
2022/04/28 08:50:14;;;;;;;7.00;6.30;;;12.80;99.90;;;;;;5019237;28;20220;-76
2022/04/28 08:52:40;;;;;;;8.07;6.90;;;13.10;99.90;;;;;;5035038;28;20166;-76
2022/04/28 08:55:06;;;;;;;8.27;6.60;;;13.30;99.90;;;;;;5035388;28;20194;-76
2022/04/28 08:57:34;;;;;;;8.00;6.60;;;13.40;99.90;;;;;;5018608;28;20660;-76
2022/04/28 09:00:00;;;;;;;7.17;6.00;;;13.50;99.90;;;;;;5035633;28;20204;-76
2022/04/28 09:02:29;;;;;;;7.53;5.87;;;13.70;99.90;;;;;;5034948;28;20188;-76
2022/04/28 09:05:04;;;;;;;8.17;5.90;;;13.80;99.90;;;;;;5035205;28;20190;-76
2022/04/28 09:07:37;;;;;;;9.50;6.70;;;13.90;99.90;;;;;;5018826;28;20180;-76
2022/04/28 09:10:24;;;;;;;7.00;5.33;;;14.10;99.90;;;;;;5017944;28;20178;-76
2022/04/28 09:12:55;;;;;;;7.13;5.40;;;14.30;99.90;;;;;;5034807;28;20254;-76
2022/04/28 09:15:22;;;;;;;5.27;4.67;;;14.50;99.90;;;;;;5035035;28;20180;-77
2022/04/28 09:17:48;;;;;;;6.53;5.00;;;14.70;99.90;;;;;;5018521;28;20189;-76
2022/04/28 09:20:16;;;;;;;5.67;5.17;;;14.90;99.90;;;;;;5018343;28;20174;-77
2022/04/28 09:22:43;;;;;;;5.53;5.00;;;15.10;99.90;;;;;;5035317;28;20170;-77
2022/04/28 09:25:09;;;;;;;6.17;5.57;;;15.30;99.90;;;;;;5002064;28;20201;-77
2022/04/28 09:27:35;;;;;;;6.43;5.73;;;15.40;99.90;;;;;;5034755;28;20180;-77
2022/04/28 09:30:01;;;;;;;6.63;5.60;;;15.40;99.90;;;;;;5018398;28;20174;-77
2022/04/28 09:32:27;;;;;;;6.07;5.47;;;15.30;99.90;;;;;;5018028;28;20173;-77
2022/04/28 09:34:54;;;;;;;6.37;5.60;;;15.40;99.90;;;;;;5018298;28;20224;-77
2022/04/28 09:37:22;;;;;;;6.40;5.50;;;15.60;99.90;;;;;;5052505;28;20188;-77
2022/04/28 09:42:40;;;;;;;6.43;5.70;;;16.10;99.90;;;;;;5037251;28;20200;-77
2022/04/28 09:45:08;;;;;;;6.30;5.70;;;16.30;99.90;;;;;;5018150;28;20718;-77
2022/04/28 09:47:35;;;;;;;5.90;5.30;;;16.50;99.90;;;;;;5034335;28;20174;-77
2022/04/28 09:50:00;;;;;;;6.03;5.20;;;16.50;99.90;;;;;;5034518;28;20219;-77
2022/04/28 09:52:26;;;;;;;6.27;5.67;;;16.60;99.90;;;;;;5017780;28;20178;-77
2022/04/28 09:54:54;;;;;;;5.77;5.27;;;16.90;99.90;;;;;;5034138;28;20194;-77
2022/04/28 09:57:21;;;;;;;6.57;5.60;;;17.10;99.90;;;;;;5018054;28;20193;-77
2022/04/28 09:59:54;;;;;;;6.70;6.10;;;17.30;99.90;;;;;;5034642;28;20212;-77
2022/04/28 10:02:24;;;;;;;5.60;4.70;;;17.40;99.90;;;;;;5001741;28;20177;-77
2022/04/28 10:04:51;;;;;;;5.60;5.00;;;17.60;99.90;;;;;;5018312;28;20209;-77
2022/04/28 10:07:17;;;;;;;6.50;5.80;;;17.80;99.90;;;;;;5034194;28;20184;-77
2022/04/28 10:09:48;;;;;;;6.33;5.50;;;17.80;99.90;;;;;;5033916;28;20181;-77
2022/04/28 10:12:18;;;;;;;5.83;4.90;;;18.00;99.90;;;;;;5001687;28;20188;-77
2022/04/28 10:14:44;;;;;;;5.40;4.90;;;18.20;99.90;;;;;;5017901;28;20197;-77
2022/04/28 10:17:31;;;;;;;5.60;4.80;;;18.40;99.90;;;;;;5017593;28;20182;-77
2022/04/28 10:19:59;;;;;;;6.83;4.80;;;18.50;99.90;;;;;;5051608;28;20538;-77
2022/04/28 10:22:34;;;;;;;5.17;4.50;;;18.60;99.90;;;;;;5036798;28;20650;-77
2022/04/28 10:33:26;;;;;;;4.90;4.40;;;19.10;99.90;;;;;;5055900;28;20485;-78
2022/04/28 10:35:54;;;;;;;5.63;4.43;;;19.20;99.90;;;;;;5021986;28;20209;-76
2022/04/28 10:38:38;;;;;;;5.53;4.57;;;19.40;99.90;;;;;;5038172;28;20197;-77
2022/04/28 10:41:09;;;;;;;5.87;4.07;;;19.40;99.10;;;;;;5022107;28;20205;-77
2022/04/28 10:43:41;;;;;;;4.20;3.77;;;19.40;99.90;;;;;;5037693;28;20201;-77
2022/04/28 10:46:13;;;;;;;4.00;3.60;;;19.00;95.00;;;;;;5038003;28;20215;-77
2022/04/28 10:48:43;;;;;;;4.67;3.30;;;18.80;94.90;;;;;;5037716;28;20177;-78
2022/04/28 10:51:13;;;;;;;4.43;3.27;;;18.70;94.20;;;;;;5021645;28;20213;-77
2022/04/28 10:53:59;;;;;;;3.50;3.17;;;18.70;92.80;;;;;;5055465;28;20224;-77
2022/04/28 10:56:50;;;;;;;4.03;3.30;;;18.60;91.80;;;;;;5021076;28;20185;-77
2022/04/28 10:59:46;;;;;;;5.00;3.50;;;18.60;93.30;;;;;;5024155;28;20409;-77
2022/04/28 11:02:11;;;;;;;3.77;3.30;;;18.40;90.00;;;;;;5037624;28;20268;-77
2022/04/28 11:04:43;;;;;;;4.13;3.50;;;18.20;93.20;;;;;;5037383;28;20280;-77
2022/04/28 11:07:16;;;;;;;4.93;3.50;;;18.00;92.20;;;;;;5004976;28;20188;-76
2022/04/28 11:09:44;;;;;;;4.00;3.60;;;18.00;95.00;;;;;;5037591;28;20169;-77
2022/04/28 11:12:11;;;;;;;4.80;4.10;;;18.10;96.30;;;;;;5054905;28;20162;-76
2022/04/28 11:14:59;;;;;;;4.50;4.10;;;17.90;96.70;;;;;;5037080;28;20190;-77
2022/04/28 11:17:26;;;;;;;5.17;3.70;;;17.80;98.80;;;;;;5037340;28;20256;-77
2022/04/28 11:19:52;;;;;;;3.93;3.57;;;17.60;99.90;;;;;;5037187;28;20166;-77
2022/04/28 11:22:18;;;;;;;4.00;3.60;;;17.40;99.90;;;;;;5020459;28;20178;-77
2022/04/28 11:24:45;;;;;;;4.00;3.70;;;17.50;99.90;;;;;;5036942;28;20200;-76
2022/04/28 11:27:18;;;;;;;6.07;3.67;;;17.70;99.90;;;;;;5004671;28;20209;-76
2022/04/28 11:29:43;;;;;;;5.10;4.23;;;18.20;99.90;;;;;;5020992;28;20196;-76
2022/04/28 11:32:09;;;;;;;4.23;3.83;;;18.80;99.90;;;;;;5019973;28;20174;-74
2022/04/28 11:34:35;;;;;;;4.33;3.93;;;19.40;99.50;;;;;;5001460;28;20304;-75
2022/04/28 11:37:19;;;;;;;5.43;4.40;;;19.70;96.60;;;;;;5036542;28;20176;-75
2022/04/28 11:39:49;;;;;;;4.37;3.60;;;19.90;94.50;;;;;;5036887;28;20176;-75
2022/04/28 11:42:18;;;;;;;3.53;3.23;;;19.90;90.80;;;;;;5036547;28;20633;-77
2022/04/28 11:44:56;;;;;;;4.10;3.70;;;19.90;92.40;;;;;;5004996;28;20193;-77
2022/04/28 11:47:26;;;;;;;3.97;3.60;;;20.10;91.20;;;;;;5021947;28;20187;-76
2022/04/28 11:50:02;;;;;;;4.33;3.63;;;19.90;84.60;;;;;;5036647;28;20173;-76
2022/04/28 11:52:31;;;;;;;4.17;3.50;;;19.80;82.80;;;;;;5054229;28;20161;-76
2022/04/28 11:55:01;;;;;;;3.87;3.03;;;20.30;89.90;;;;;;5020649;28;20206;-77
2022/04/28 11:57:27;;;;;;;5.77;3.20;;;20.60;88.70;;;;;;5036530;28;20188;-75
2022/04/28 11:59:54;;;;;;;4.03;3.30;;;20.20;82.50;;;;;;5019927;28;20553;-75
2022/04/28 12:02:34;;;;;;;3.87;3.40;;;20.20;82.60;;;;;;5019866;28;20231;-75
2022/04/28 12:05:03;;;;;;;3.80;3.10;;;20.30;86.80;;;;;;5019972;28;20410;-74
2022/04/28 12:07:35;;;;;;;3.10;2.87;;;20.60;90.10;;;;;;5036252;28;20647;-74
2022/04/28 12:15:32;;;;;;;5.95;3.40;;;21.80;91.70;;;;;;5054249;28;20204;-74
2022/04/28 12:21:02;;;;;;;2.75;2.53;;;22.10;80.10;;;;;;5024870;28;20293;-74
2022/04/28 12:23:32;;;;;;;3.38;3.08;;;21.90;83.20;;;;;;5019338;28;20198;-73
2022/04/28 12:26:03;;;;;;;3.70;2.55;;;21.90;79.70;;;;;;5003489;28;20225;-74
2022/04/28 12:28:39;;;;;;;3.40;2.92;;;22.00;76.70;;;;;;5035991;28;20220;-74
2022/04/28 12:31:07;;;;;;;3.53;2.92;;;22.10;72.00;;;;;;5036601;28;20173;-73
2022/04/28 12:33:34;;;;;;;4.78;2.50;;;22.20;70.40;;;;;;5035534;28;20216;-73
2022/04/28 12:36:04;;;;;;;3.63;2.72;;;22.40;76.20;;;;;;5019628;28;20276;-75
2022/04/28 12:38:34;;;;;;;4.25;3.03;;;22.60;72.50;;;;;;5036522;28;20170;-75
2022/04/28 12:41:15;;;;;;;3.35;2.75;;;22.40;69.20;;;;;;5036453;28;20566;-74
2022/04/28 12:43:43;;;;;;;3.30;2.70;;;22.40;73.20;;;;;;5035725;28;20255;-75
2022/04/28 12:46:09;;;;;;;2.80;2.60;;;22.60;74.30;;;;;;5002064;28;20228;-75
2022/04/28 12:48:37;;;;;;;3.75;2.80;;;22.80;69.70;;;;;;5002878;28;20255;-75
2022/04/28 12:51:10;;;;;;;3.05;2.80;;;23.00;70.50;;;;;;5019171;28;20178;-75
2022/04/28 12:53:37;;;;;;;3.00;2.70;;;23.30;68.70;;;;;;5036319;28;20271;-75
2022/04/28 12:56:12;;;;;;;3.63;2.78;;;23.40;65.50;;;;;;5035367;28;20173;-75
2022/04/28 12:58:47;;;;;;;2.70;2.50;;;23.50;67.30;;;;;;5035526;28;20256;-75
2022/04/28 13:01:17;;;;;;;3.35;2.90;;;23.30;67.30;;;;;;5053368;28;20219;-75
2022/04/28 13:03:56;;;;;;;3.63;2.90;;;23.20;59.30;;;;;;5002862;28;20225;-75
2022/04/28 13:06:27;;;;;;;3.22;2.92;;;22.90;65.00;;;;;;5035201;28;20189;-75
2022/04/28 13:08:55;;;;;;;3.17;2.80;;;22.90;60.20;;;;;;5035266;28;20192;-75
2022/04/28 13:11:22;;;;;;;2.85;2.60;;;22.70;58.80;;;;;;5053006;28;20559;-74
2022/04/28 13:13:49;;;;;;;3.45;2.50;;;22.70;60.90;;;;;;5035000;28;20185;-75
2022/04/28 13:16:15;;;;;;;3.95;2.58;;;23.10;66.10;;;;;;5002486;28;20178;-75
2022/04/28 13:18:40;;;;;;;3.20;2.70;;;23.30;59.80;;;;;;5018710;28;20180;-75
2022/04/28 13:21:08;;;;;;;3.90;2.58;;;23.20;60.40;;;;;;5002338;28;20207;-76
2022/04/28 13:23:33;;;;;;;3.10;2.80;;;23.60;60.00;;;;;;5001999;28;20235;-76
2022/04/28 13:25:59;;;;;;;5.35;3.00;;;23.90;58.80;;;;;;5018493;28;20214;-75
2022/04/28 13:28:26;;;;;;;2.72;2.53;;;24.00;55.70;;;;;;5018502;28;20216;-75
2022/04/28 13:30:51;;;;;;;3.38;2.45;;;23.90;57.40;;;;;;5018512;28;20174;-75
2022/04/28 13:33:17;;;;;;;3.58;2.33;;;24.00;61.70;;;;;;5017948;28;20216;-75
2022/04/28 13:35:43;;;;;;;6.97;2.50;;;24.50;58.40;;;;;;5034998;28;20174;-76
2022/04/28 13:38:10;;;;;;;3.42;2.65;;;24.80;56.60;;;;;;5018541;28;20211;-76
2022/04/28 13:40:36;;;;;;;2.78;2.58;;;25.10;58.80;;;;;;5018525;28;20676;-76
2022/04/28 13:43:02;;;;;;;3.42;2.53;;;25.20;57.70;;;;;;5017883;28;20197;-75
2022/04/28 13:45:28;;;;;;;3.10;2.78;;;24.70;56.30;;;;;;5034524;28;20201;-76
2022/04/28 13:47:53;;;;;;;2.53;2.33;;;24.30;55.20;;;;;;5017940;28;20664;-76
2022/04/28 13:50:19;;;;;;;3.10;2.80;;;24.40;61.20;;;;;;5001521;28;20185;-75
2022/04/28 13:52:44;;;;;;;3.22;2.92;;;24.60;56.50;;;;;;5001354;28;20709;-75
2022/04/28 13:55:10;;;;;;;2.97;2.67;;;24.60;60.80;;;;;;5018086;28;20243;-75
2022/04/28 13:57:36;;;;;;;4.30;2.83;;;24.30;57.00;;;;;;5001544;28;20174;-75
2022/04/28 14:00:02;;;;;;;2.92;2.72;;;24.00;56.50;;;;;;5001518;28;20300;-75
2022/04/28 14:02:28;;;;;;;3.58;3.00;;;24.10;60.80;;;;;;5017951;28;20184;-75
2022/04/28 14:04:54;;;;;;;3.00;2.58;;;24.40;56.60;;;;;;5017675;28;20193;-75
2022/04/28 14:07:20;;;;;;;3.85;2.92;;;24.40;55.80;;;;;;5034375;28;20225;-75
2022/04/28 14:09:46;;;;;;;3.40;2.55;;;24.10;56.30;;;;;;5017787;28;20208;-75
2022/04/28 14:12:12;;;;;;;3.30;2.88;;;24.20;56.40;;;;;;5001356;28;20227;-75
2022/04/28 14:14:40;;;;;;;2.95;2.70;;;24.20;56.90;;;;;;5001382;28;20206;-75
2022/04/28 14:17:06;;;;;;;2.70;2.50;;;24.30;53.90;;;;;;5018472;28;20170;-75
2022/04/28 14:19:32;;;;;;;3.13;2.70;;;24.00;53.30;;;;;;5033776;28;20256;-75
2022/04/28 14:21:58;;;;;;;3.38;2.78;;;24.10;54.70;;;;;;5001208;28;20209;-75
2022/04/28 14:24:24;;;;;;;3.13;2.72;;;23.90;56.30;;;;;;5052120;28;20186;-75
2022/04/28 14:26:51;;;;;;;3.90;2.70;;;23.90;55.30;;;;;;5018013;28;20235;-76
2022/04/28 14:29:18;;;;;;;3.65;2.92;;;24.40;55.60;;;;;;5017931;28;20170;-75
2022/04/28 14:31:43;;;;;;;4.30;3.30;;;24.50;53.40;;;;;;5018187;28;20256;-75
2022/04/28 14:34:09;;;;;;;4.60;2.90;;;24.30;53.30;;;;;;5017406;28;20280;-75
2022/04/28 14:36:35;;;;;;;4.40;3.20;;;24.30;53.90;;;;;;5001205;28;20190;-75
2022/04/28 14:39:01;;;;;;;3.55;3.22;;;23.50;54.50;;;;;;5033972;28;20178;-75
2022/04/28 14:41:26;;;;;;;4.35;2.85;;;23.30;53.10;;;;;;5001570;28;20550;-75
2022/04/28 14:43:52;;;;;;;2.75;2.55;;;23.00;54.20;;;;;;5000888;28;20202;-75